Aérodrome :
LOGIN :

S'inscrire | Disclaimer

   EN    FR    IT 

 










Légende :    VFR   VFR Marginal   IFR   IFR Intensif   IFR Très Intensif
Visi : 
Plafond : 
>= 8 km
>= 3000ft
5 à 8 km
1000 à 3000 ft
1500m à 5 km
500 à 1000 ft
800 à 1500m
200 à 500 ft
< 800m
< 200 ft
Symboles :   Orages  Brouillard  Fortes neiges  Fortes précipitations  Vent > 20 kt
SIGMETs :   Divers  Orages  Givrage  Turbulence  Onde Orograph.  Cendres Volcan.






- Altitude de l'aérodrome : 697 ft
- Code IATA : PEG


LIRZ - San Edigio Perugia

DERNIER METAR :
  • 170320Z AUTO 35004KT 9999 NCD 15/15 Q1017

METARs EXPIRÉS :
  • 170250Z AUTO 03004KT 9999 NCD 15/15 Q1016
  • 170220Z AUTO 03005KT 9999 NCD 15/15 Q1016
  • 170150Z AUTO 04005KT 9999 FEW047/// 16/16 Q1016
  • 170120Z AUTO 02003KT 9999 BKN049/// 16/16 Q1016
  • 170050Z AUTO 01002KT 9999 BKN051/// 17/17 Q1016
  • 170020Z AUTO VRB02KT 9999 BKN052/// 17/17 Q1016
  • 162350Z AUTO 02005KT 9999 NCD 16/16 Q1016
  • 162320Z AUTO VRB01KT 9999 SCT048/// 18/16 Q1016

TAF TAF LIRZ
Valide du 17 à 00h jusqu'au 18 à 00h UTC


162300Z 1700/1724 VRB05KT 9999 FEW050



MET'MAP, la Météo Aéronautique d'un coup d'oeil ! - Copyright ORBIFLY Décembre 2007 - Disclaimer

ORBIFLY MET'MAP TEAM :

Programmation & Développement : Alexandra Zaïnal
Sur une idée originale de : Baudouin d'Aumeries
Soutien technique & logistique : Manuel Goepfert
Assistance : Marc-Olivier Méhu




SOURCES & CREDITS :

   NOAA